createdAt,value
2019-02-19T00:02:16.650Z,99741.05
2019-02-19T00:04:46.221Z,99741.55
2019-02-19T00:07:15.807Z,99743.55
2019-02-19T00:09:45.426Z,99739.02
2019-02-19T00:12:14.994Z,99741.73
2019-02-19T00:14:44.586Z,99742.22
2019-02-19T00:17:14.219Z,99735.02
2019-02-19T00:19:43.775Z,99731.00
2019-02-19T00:22:13.344Z,99731.52
2019-02-19T00:24:42.944Z,99733.15
2019-02-19T00:27:12.517Z,99733.28
2019-02-19T00:29:42.129Z,99729.95
2019-02-19T00:32:11.730Z,99733.73
2019-02-19T00:34:41.349Z,99730.47
2019-02-19T00:37:10.910Z,99732.77
2019-02-19T00:39:40.541Z,99726.72
2019-02-19T00:42:10.107Z,99722.50
2019-02-19T00:44:39.684Z,99721.45
2019-02-19T00:47:09.309Z,99717.88
2019-02-19T00:49:38.881Z,99717.75
2019-02-19T00:52:08.456Z,99718.57
2019-02-19T00:54:38.039Z,99712.81
2019-02-19T00:57:07.604Z,99711.52
2019-02-19T00:59:37.169Z,99712.09
2019-02-19T01:02:06.782Z,99707.74
2019-02-19T01:04:36.368Z,99706.93
2019-02-19T01:07:05.998Z,99707.21
2019-02-19T01:09:35.935Z,99710.81
2019-02-19T01:12:05.617Z,99709.75
2019-02-19T01:14:35.180Z,99710.13
2019-02-19T01:17:04.836Z,99704.25
2019-02-19T01:19:34.423Z,99707.39
2019-02-19T01:22:04.001Z,99700.81
2019-02-19T01:24:33.602Z,99702.17
2019-02-19T01:27:03.197Z,99697.48
2019-02-19T01:29:32.824Z,99694.69
2019-02-19T01:32:02.453Z,99685.61
2019-02-19T01:34:32.019Z,99692.35
2019-02-19T01:37:01.634Z,99691.14
2019-02-19T01:39:31.278Z,99695.23
2019-02-19T01:42:00.853Z,99694.71
2019-02-19T01:44:50.837Z,99686.70
2019-02-19T01:47:20.411Z,99687.90
2019-02-19T01:49:49.997Z,99682.09
2019-02-19T01:52:19.646Z,99684.45
2019-02-19T01:54:49.248Z,99684.78
2019-02-19T01:57:18.815Z,99682.80
2019-02-19T02:09:53.852Z,99672.41
2019-02-19T02:12:23.418Z,99677.20
2019-02-19T02:14:53.303Z,99681.97
2019-02-19T02:17:22.912Z,99674.66
2019-02-19T02:19:52.493Z,99671.31
2019-02-19T02:22:22.097Z,99677.64
2019-02-19T02:24:51.754Z,99680.70
2019-02-19T02:27:21.444Z,99677.55
2019-02-19T02:29:51.036Z,99682.59
2019-02-19T02:32:20.670Z,99675.80
2019-02-19T02:34:50.221Z,99681.20
2019-02-19T02:37:19.816Z,99679.80
2019-02-19T02:39:49.465Z,99672.28
2019-02-19T02:42:19.026Z,99678.84
2019-02-19T02:44:48.591Z,99687.25
2019-02-19T02:47:18.211Z,99680.12
2019-02-19T02:49:47.792Z,99682.27
2019-02-19T02:52:17.369Z,99679.64
2019-02-19T02:54:47.001Z,99686.59
2019-02-19T02:57:16.564Z,99689.92
2019-02-19T02:59:46.162Z,99678.91
2019-02-19T03:02:15.801Z,99684.23
2019-02-19T03:04:45.359Z,99683.23
2019-02-19T03:07:33.785Z,99682.05
2019-02-19T03:10:03.428Z,99684.03
2019-02-19T03:12:33.002Z,99681.97
2019-02-19T03:15:02.617Z,99680.13
2019-02-19T03:17:32.208Z,99681.58
2019-02-19T03:20:01.845Z,99684.02
2019-02-19T03:22:31.564Z,99680.73
2019-02-19T03:25:01.123Z,99679.20
2019-02-19T03:27:30.733Z,99678.07
2019-02-19T03:30:00.403Z,99683.78
2019-02-19T03:32:29.948Z,99686.85
2019-02-19T03:34:59.525Z,99687.05
2019-02-19T03:37:29.175Z,99682.47
2019-02-19T03:39:58.777Z,99684.22
2019-02-19T03:42:28.344Z,99682.92
2019-02-19T03:44:57.997Z,99680.20
2019-02-19T03:47:27.570Z,99683.02
2019-02-19T03:49:57.141Z,99686.66
2019-02-19T03:52:26.745Z,99680.98
2019-02-19T03:54:56.332Z,99681.91
2019-02-19T03:57:25.886Z,99677.97
2019-02-19T03:59:55.522Z,99685.77
2019-02-19T04:02:25.094Z,99680.80
2019-02-19T04:04:54.671Z,99682.22
2019-02-19T04:07:24.328Z,99679.13
2019-02-19T04:09:53.930Z,99678.37
2019-02-19T04:12:23.671Z,99679.47
2019-02-19T04:14:53.339Z,99679.84
2019-02-19T04:17:22.907Z,99682.78
2019-02-19T04:19:52.497Z,99677.93
2019-02-19T04:22:22.140Z,99682.88
2019-02-19T04:24:51.714Z,99683.28
2019-02-19T04:27:21.398Z,99689.27
2019-02-19T04:29:51.026Z,99691.38
2019-02-19T04:32:20.611Z,99685.77
2019-02-19T04:34:50.198Z,99686.30
2019-02-19T04:37:19.830Z,99685.39
2019-02-19T04:39:49.377Z,99692.23
2019-02-19T04:42:19.001Z,99693.70
2019-02-19T04:44:48.605Z,99695.67
2019-02-19T04:47:18.174Z,99693.55
2019-02-19T04:49:47.756Z,99698.30
2019-02-19T04:52:17.394Z,99705.02
2019-02-19T04:54:46.957Z,99709.95
2019-02-19T04:57:16.562Z,99708.36
2019-02-19T04:59:46.177Z,99711.22
2019-02-19T05:02:15.778Z,99707.64
2019-02-19T05:04:45.362Z,99706.11
2019-02-19T05:07:14.989Z,99714.47
2019-02-19T05:09:44.564Z,99708.50
2019-02-19T05:12:14.183Z,99725.19
2019-02-19T05:14:43.797Z,99715.36
2019-02-19T05:17:13.384Z,99716.86
2019-02-19T05:19:42.965Z,99716.25
2019-02-19T05:22:12.607Z,99720.21
2019-02-19T05:24:42.195Z,99719.12
2019-02-19T05:27:11.809Z,99716.34
2019-02-19T05:29:49.172Z,99713.89
2019-02-19T05:32:18.752Z,99729.53
2019-02-19T05:34:48.357Z,99727.20
2019-02-19T05:37:17.962Z,99728.72
2019-02-19T05:39:47.530Z,99729.52
2019-02-19T05:42:17.158Z,99731.92
2019-02-19T05:44:46.862Z,99736.80
2019-02-19T05:47:16.453Z,99738.77
2019-02-19T05:49:46.079Z,99743.20
2019-02-19T05:52:15.704Z,99744.05
2019-02-19T05:54:45.291Z,99748.33
2019-02-19T05:57:14.939Z,99748.31
2019-02-19T05:59:44.662Z,99755.53
2019-02-19T06:02:14.288Z,99751.34
2019-02-19T06:04:43.921Z,99762.54
2019-02-19T06:07:13.564Z,99762.58
2019-02-19T06:09:43.223Z,99768.19
2019-02-19T06:12:13.199Z,99766.30
2019-02-19T06:14:42.851Z,99769.64
2019-02-19T06:17:12.471Z,99767.37
2019-02-19T06:19:42.081Z,99779.63
2019-02-19T06:22:11.715Z,99777.98
2019-02-19T06:24:41.298Z,99782.41
2019-02-19T06:27:10.993Z,99780.07
2019-02-19T06:29:40.749Z,99789.52
2019-02-19T06:32:10.354Z,99799.70
2019-02-19T06:34:40.293Z,99791.65
2019-02-19T06:37:10.119Z,99785.15
2019-02-19T06:39:39.737Z,99795.87
2019-02-19T06:42:09.378Z,99792.91
2019-02-19T06:44:39.298Z,99789.96
2019-02-19T06:47:09.009Z,99790.19
2019-02-19T06:49:38.737Z,99796.77
2019-02-19T06:52:08.634Z,99793.14
2019-02-19T06:54:38.613Z,99799.82
2019-02-19T06:57:08.372Z,99799.22
2019-02-19T06:59:38.145Z,99796.33
2019-02-19T07:08:05.246Z,99790.23
2019-02-19T07:10:34.873Z,99793.91
2019-02-19T07:13:04.579Z,99785.66
2019-02-19T07:15:34.190Z,99784.17
2019-02-19T07:18:03.802Z,99786.42
2019-02-19T07:20:33.426Z,99777.66
2019-02-19T07:23:03.023Z,99780.47
2019-02-19T07:25:32.719Z,99773.46
2019-02-19T07:28:02.317Z,99776.09
2019-02-19T07:30:31.961Z,99775.44
2019-02-19T07:33:01.586Z,99767.41
2019-02-19T07:35:31.255Z,99771.02
2019-02-19T07:38:00.872Z,99773.16
2019-02-19T07:40:30.541Z,99768.62
2019-02-19T07:43:00.138Z,99769.06
2019-02-19T07:45:29.757Z,99762.58
2019-02-19T07:47:59.381Z,99767.09
2019-02-19T07:50:28.961Z,99767.41
2019-02-19T07:52:58.599Z,99768.77
2019-02-19T07:55:28.259Z,99767.53
2019-02-19T08:04:48.521Z,99775.81
2019-02-19T08:14:52.924Z,99775.39
2019-02-19T08:17:33.275Z,99770.46
2019-02-19T08:29:11.291Z,99758.05
2019-02-19T08:31:29.661Z,99760.15
2019-02-19T08:33:59.323Z,99759.52
2019-02-19T08:36:29.788Z,99754.61
2019-02-19T08:39:00.299Z,99757.13
2019-02-19T08:41:29.932Z,99760.30
2019-02-19T08:43:59.524Z,99759.70
2019-02-19T08:46:29.127Z,99755.13
2019-02-19T08:48:58.788Z,99759.05
2019-02-19T08:51:28.390Z,99754.89
2019-02-19T08:53:58.012Z,99756.00
2019-02-19T08:56:27.680Z,99753.99
2019-02-19T08:58:57.288Z,99747.20
2019-02-19T09:01:26.890Z,99750.37
2019-02-19T09:03:56.563Z,99743.79
2019-02-19T09:06:27.629Z,99750.66
2019-02-19T09:19:48.661Z,99748.62
2019-02-19T09:22:18.303Z,99745.56
2019-02-19T09:24:47.894Z,99739.68
2019-02-19T09:27:17.502Z,99739.86
2019-02-19T09:29:47.624Z,99743.58
2019-02-19T09:32:18.501Z,99744.40
2019-02-19T09:34:48.135Z,99745.98
2019-02-19T09:37:17.854Z,99745.66
2019-02-19T09:39:47.494Z,99737.66
2019-02-19T09:42:17.115Z,99736.63
2019-02-19T09:44:46.761Z,99729.63
2019-02-19T09:47:16.360Z,99735.47
2019-02-19T09:49:45.948Z,99727.42
2019-02-19T09:52:15.562Z,99732.34
2019-02-19T09:54:45.161Z,99725.76
2019-02-19T09:57:14.733Z,99727.77
2019-02-19T09:59:44.370Z,99725.50
2019-02-19T10:02:13.950Z,99716.69
2019-02-19T10:04:43.596Z,99711.60
2019-02-19T10:07:13.195Z,99712.17
2019-02-19T10:09:42.769Z,99706.36
2019-02-19T10:12:12.354Z,99699.67
2019-02-19T10:14:42.084Z,99696.35
2019-02-19T10:17:11.675Z,99694.41
2019-02-19T10:19:41.268Z,99695.96
2019-02-19T10:22:10.911Z,99683.02
2019-02-19T10:24:40.492Z,99682.03
2019-02-19T10:27:10.088Z,99682.88
2019-02-19T10:29:39.718Z,99678.72
2019-02-19T10:32:09.329Z,99671.98
2019-02-19T10:34:38.946Z,99667.17
2019-02-19T10:37:08.742Z,99664.86
2019-02-19T10:39:38.308Z,99655.81
2019-02-19T10:42:07.950Z,99650.73
2019-02-19T10:44:37.580Z,99646.62
2019-02-19T10:47:07.183Z,99652.22
2019-02-19T10:49:36.790Z,99642.97
2019-02-19T10:52:06.435Z,99640.41
2019-02-19T10:54:36.039Z,99628.09
2019-02-19T10:57:05.631Z,99625.38
2019-02-19T10:59:35.252Z,99616.19
2019-02-19T11:02:04.871Z,99623.75
2019-02-19T11:04:34.491Z,99620.57
2019-02-19T11:07:04.145Z,99620.63
2019-02-19T11:09:33.727Z,99605.63
2019-02-19T11:12:03.321Z,99601.83
2019-02-19T11:14:33.016Z,99596.15
2019-02-19T11:17:02.599Z,99593.51
2019-02-19T11:19:32.218Z,99591.00
2019-02-19T11:22:01.846Z,99588.09
2019-02-19T11:24:31.476Z,99577.86
2019-02-19T11:27:01.117Z,99575.48
2019-02-19T11:29:30.847Z,99571.23
2019-02-19T11:32:00.481Z,99569.40
2019-02-19T11:34:30.073Z,99564.05
2019-02-19T11:36:59.716Z,99561.53
2019-02-19T11:39:29.336Z,99558.98
2019-02-19T11:41:58.927Z,99562.92
2019-02-19T11:44:28.557Z,99550.95
2019-02-19T11:46:58.134Z,99544.52
2019-02-19T11:49:27.761Z,99543.25
2019-02-19T11:51:57.379Z,99542.61
2019-02-19T11:54:26.973Z,99537.96
2019-02-19T11:56:56.580Z,99533.48
2019-02-19T11:59:26.225Z,99535.37
2019-02-19T12:01:56.035Z,99531.94
2019-02-19T12:04:25.648Z,99528.58
2019-02-19T12:06:55.307Z,99523.86
2019-02-19T12:09:24.912Z,99524.17
2019-02-19T12:11:54.583Z,99522.17
2019-02-19T12:14:24.268Z,99518.18
2019-02-19T12:16:53.846Z,99512.92
2019-02-19T12:19:23.443Z,99509.03
2019-02-19T12:21:53.062Z,99509.23
2019-02-19T12:24:22.656Z,99509.08
2019-02-19T12:26:52.245Z,99502.18
2019-02-19T12:29:21.866Z,99498.12
2019-02-19T12:31:51.501Z,99498.43
2019-02-19T12:34:21.110Z,99490.85
2019-02-19T12:36:50.740Z,99490.48
2019-02-19T12:39:20.358Z,99482.83
2019-02-19T12:41:49.929Z,99477.59
2019-02-19T12:44:19.611Z,99481.91
2019-02-19T12:46:49.232Z,99477.06
2019-02-19T12:49:18.852Z,99474.39
2019-02-19T12:51:48.492Z,99469.92
2019-02-19T12:54:18.087Z,99469.81
2019-02-19T12:56:47.736Z,99463.97
2019-02-19T12:59:17.391Z,99466.55
2019-02-19T13:01:47.001Z,99470.28
2019-02-19T13:04:16.634Z,99464.93
2019-02-19T13:06:46.277Z,99464.80
2019-02-19T13:09:15.890Z,99458.03
2019-02-19T13:11:45.492Z,99454.35
2019-02-19T13:14:15.165Z,99453.76
2019-02-19T13:16:44.826Z,99454.17
2019-02-19T13:19:14.427Z,99451.12
2019-02-19T13:21:44.054Z,99457.20
2019-02-19T13:24:13.664Z,99453.93
2019-02-19T13:26:43.258Z,99448.91
2019-02-19T13:29:12.904Z,99445.03
2019-02-19T13:31:42.505Z,99439.06
2019-02-19T13:34:12.145Z,99438.70
2019-02-19T13:36:41.811Z,99444.27
2019-02-19T13:39:11.648Z,99437.27
2019-02-19T13:41:41.252Z,99443.57
2019-02-19T13:44:10.902Z,99437.41
2019-02-19T13:46:40.516Z,99437.46
2019-02-19T13:49:12.243Z,99428.31
2019-02-19T13:51:41.845Z,99432.86
2019-02-19T13:54:30.333Z,99430.25
2019-02-19T13:57:00.036Z,99430.19
2019-02-19T13:59:29.675Z,99431.62
2019-02-19T14:01:59.266Z,99423.25
2019-02-19T14:04:28.913Z,99422.17
2019-02-19T14:06:58.553Z,99429.26
2019-02-19T14:09:28.173Z,99431.66
2019-02-19T14:11:57.866Z,99423.00
2019-02-19T14:14:46.306Z,99421.22
2019-02-19T14:17:20.564Z,99416.30
2019-02-19T14:20:09.305Z,99417.34
2019-02-19T14:25:50.653Z,99422.55
2019-02-19T14:28:39.435Z,99415.29
2019-02-19T14:37:49.508Z,99408.92
2019-02-19T14:40:38.653Z,99408.59
2019-02-19T14:43:20.801Z,99406.12
2019-02-19T14:46:09.233Z,99406.72
2019-02-19T14:54:57.411Z,99403.48
2019-02-19T15:20:41.167Z,99390.09
2019-02-19T15:23:29.959Z,99391.25
2019-02-19T15:29:11.279Z,99388.05
2019-02-19T15:35:05.696Z,99395.06
2019-02-19T15:40:58.763Z,99396.94
2019-02-19T15:43:48.185Z,99395.17
2019-02-19T15:46:36.708Z,99389.61
2019-02-19T15:49:25.137Z,99396.27
2019-02-19T15:55:10.302Z,99397.08
2019-02-19T15:58:04.529Z,99399.52
2019-02-19T16:00:48.917Z,99396.28
2019-02-19T16:03:37.813Z,99398.96
2019-02-19T16:06:26.660Z,99400.50
2019-02-19T16:12:08.692Z,99407.31
2019-02-19T16:14:44.119Z,99414.76
2019-02-19T16:17:32.936Z,99408.03
2019-02-19T16:20:21.383Z,99416.44
2019-02-19T16:23:09.838Z,99418.17
2019-02-19T16:25:58.225Z,99421.91
2019-02-19T16:28:46.661Z,99417.61
2019-02-19T16:31:35.316Z,99420.36
2019-02-19T16:34:27.397Z,99428.50
2019-02-19T16:37:18.884Z,99425.67
2019-02-19T16:40:05.840Z,99426.38
2019-02-19T16:42:46.004Z,99425.34
2019-02-19T16:45:25.229Z,99427.23
2019-02-19T16:48:22.887Z,99429.72
2019-02-19T16:51:17.539Z,99435.63
2019-02-19T16:54:09.076Z,99433.97
2019-02-19T16:57:04.183Z,99434.92
2019-02-19T16:59:48.274Z,99433.99
2019-02-19T17:02:24.920Z,99431.61
2019-02-19T17:05:12.120Z,99437.66
2019-02-19T17:08:03.409Z,99440.18
2019-02-19T17:10:42.101Z,99433.20
2019-02-19T17:13:30.615Z,99431.57
2019-02-19T17:16:34.064Z,99428.67
2019-02-19T17:19:21.151Z,99429.36
2019-02-19T17:22:05.836Z,99425.21
2019-02-19T17:24:54.331Z,99431.08
2019-02-19T17:27:48.607Z,99426.12
2019-02-19T17:30:43.287Z,99427.50
2019-02-19T17:33:30.182Z,99429.27
2019-02-19T17:36:18.690Z,99427.13
2019-02-19T17:39:07.162Z,99425.52
2019-02-19T17:41:51.866Z,99426.70
2019-02-19T17:44:35.890Z,99430.20
2019-02-19T17:47:29.159Z,99421.28
2019-02-19T17:50:09.471Z,99426.70
2019-02-19T17:52:46.704Z,99423.20
2019-02-19T17:55:41.174Z,99423.86
2019-02-19T17:58:17.280Z,99416.83
2019-02-19T18:01:05.735Z,99417.78
2019-02-19T18:03:57.017Z,99418.27
2019-02-19T18:06:44.158Z,99418.03
2019-02-19T18:09:22.211Z,99416.34
2019-02-19T18:11:59.631Z,99415.23
2019-02-19T18:14:46.837Z,99419.17
2019-02-19T18:17:27.474Z,99407.47
2019-02-19T18:19:57.087Z,99411.92
2019-02-19T18:22:26.722Z,99411.91
2019-02-19T18:24:56.310Z,99414.34
2019-02-19T18:27:25.943Z,99417.55
2019-02-19T18:29:55.545Z,99415.69
2019-02-19T18:32:25.142Z,99419.79
2019-02-19T18:34:54.759Z,99421.80
2019-02-19T18:37:24.396Z,99420.85
2019-02-19T18:39:54.005Z,99418.92
2019-02-19T18:42:23.861Z,99420.40
2019-02-19T18:44:53.466Z,99417.19
2019-02-19T18:47:23.042Z,99417.38
2019-02-19T18:49:52.656Z,99412.33
2019-02-19T18:52:22.290Z,99417.19
2019-02-19T18:54:51.942Z,99407.63
2019-02-19T18:57:21.610Z,99412.86
2019-02-19T18:59:51.211Z,99411.30
2019-02-19T19:02:20.815Z,99415.16
2019-02-19T19:04:50.495Z,99411.41
2019-02-19T19:07:20.082Z,99419.34
2019-02-19T19:09:49.683Z,99418.61
2019-02-19T19:12:19.331Z,99421.00
2019-02-19T19:14:48.938Z,99423.18
2019-02-19T19:17:18.542Z,99415.59
2019-02-19T19:19:48.192Z,99418.28
2019-02-19T19:22:17.783Z,99426.55
2019-02-19T19:24:47.374Z,99420.45
2019-02-19T19:27:17.043Z,99423.38
2019-02-19T19:29:46.650Z,99423.31
2019-02-19T19:32:16.237Z,99421.98
2019-02-19T19:34:45.875Z,99428.05
2019-02-19T19:37:15.472Z,99446.56
2019-02-19T19:39:45.040Z,99451.31
2019-02-19T19:42:14.805Z,99453.84
2019-02-19T19:44:44.416Z,99453.18
2019-02-19T19:47:14.002Z,99449.86
2019-02-19T19:49:43.637Z,99462.84
2019-02-19T19:52:13.290Z,99458.97
2019-02-19T19:54:42.881Z,99459.49
2019-02-19T19:57:12.522Z,99455.28
2019-02-19T19:59:42.142Z,99460.80
2019-02-19T20:02:11.772Z,99464.34
2019-02-19T20:04:41.417Z,99459.30
2019-02-19T20:07:11.018Z,99468.88
2019-02-19T20:09:40.601Z,99461.83
2019-02-19T20:12:10.255Z,99465.02
2019-02-19T20:14:39.847Z,99469.20
2019-02-19T20:17:09.465Z,99456.61
2019-02-19T20:19:39.123Z,99455.77
2019-02-19T20:22:09.019Z,99463.30
2019-02-19T20:24:38.607Z,99452.53
2019-02-19T20:27:08.229Z,99452.22
2019-02-19T20:29:37.846Z,99456.72
2019-02-19T20:32:07.442Z,99448.04
2019-02-19T20:34:37.118Z,99445.84
2019-02-19T20:37:06.887Z,99443.69
2019-02-19T20:39:36.555Z,99448.22
2019-02-19T20:42:06.196Z,99449.70
2019-02-19T20:44:35.811Z,99448.39
2019-02-19T20:47:05.527Z,99452.58
2019-02-19T20:49:35.227Z,99451.20
2019-02-19T20:52:04.873Z,99448.12
2019-02-19T20:54:34.469Z,99448.59
2019-02-19T20:57:04.126Z,99445.64
2019-02-19T20:59:33.751Z,99449.02
2019-02-19T21:02:03.339Z,99446.68
2019-02-19T21:04:32.984Z,99444.23
2019-02-19T21:07:02.568Z,99444.05
2019-02-19T21:09:42.974Z,99449.34
2019-02-19T21:12:03.474Z,99457.02
2019-02-19T21:14:33.044Z,99446.77
2019-02-19T21:17:02.653Z,99445.41
2019-02-19T21:19:32.287Z,99441.72
2019-02-19T21:22:01.874Z,99440.14
2019-02-19T21:24:31.450Z,99440.30
2019-02-19T21:27:01.072Z,99440.53
2019-02-19T21:29:33.776Z,99440.12
2019-02-19T21:32:03.364Z,99437.37
2019-02-19T21:34:33.054Z,99434.34
2019-02-19T21:37:02.639Z,99435.55
2019-02-19T21:39:32.248Z,99429.94
2019-02-19T21:42:01.910Z,99435.00
2019-02-19T21:44:31.486Z,99436.77
2019-02-19T21:47:01.103Z,99436.77
2019-02-19T21:49:30.833Z,99431.05
2019-02-19T21:52:00.442Z,99426.36
2019-02-19T21:54:30.031Z,99427.75
2019-02-19T21:56:59.685Z,99426.16
2019-02-19T21:59:29.309Z,99434.22
2019-02-19T22:01:58.913Z,99439.89
2019-02-19T22:04:28.563Z,99434.27
2019-02-19T22:06:58.187Z,99432.81
2019-02-19T22:09:27.747Z,99437.64
2019-02-19T22:11:57.371Z,99437.53
2019-02-19T22:14:26.966Z,99433.97
2019-02-19T22:16:56.552Z,99422.39
2019-02-19T22:19:26.168Z,99428.38
2019-02-19T22:22:20.644Z,99428.38
2019-02-19T22:24:50.259Z,99430.09
2019-02-19T22:27:19.852Z,99427.18
2019-02-19T22:29:49.450Z,99427.88
2019-02-19T22:32:19.901Z,99424.01
2019-02-19T22:34:49.546Z,99427.33
2019-02-19T22:37:19.142Z,99423.34
2019-02-19T22:39:48.756Z,99422.85
2019-02-19T22:42:18.363Z,99427.82
2019-02-19T22:44:47.939Z,99420.67
2019-02-19T22:47:17.554Z,99419.66
2019-02-19T22:49:47.197Z,99419.98
2019-02-19T22:52:16.792Z,99417.66
2019-02-19T22:54:51.417Z,99420.66
2019-02-19T22:57:21.002Z,99419.66
2019-02-19T22:59:50.574Z,99422.30
2019-02-19T23:02:23.430Z,99420.58
2019-02-19T23:04:53.037Z,99418.28
2019-02-19T23:07:22.620Z,99417.91
2019-02-19T23:09:52.544Z,99416.11
2019-02-19T23:12:22.116Z,99421.51
2019-02-19T23:14:51.680Z,99422.25
2019-02-19T23:17:21.292Z,99415.55
2019-02-19T23:19:50.887Z,99409.48
2019-02-19T23:22:21.832Z,99413.72
2019-02-19T23:24:51.692Z,99419.06
2019-02-19T23:27:21.259Z,99412.81
2019-02-19T23:29:50.830Z,99410.55
2019-02-19T23:32:20.474Z,99407.66
2019-02-19T23:35:08.980Z,99425.88
2019-02-19T23:37:38.619Z,99417.52
2019-02-19T23:40:08.399Z,99419.90
2019-02-19T23:42:38.122Z,99418.67
2019-02-19T23:45:07.913Z,99420.34
2019-02-19T23:47:37.628Z,99415.34
2019-02-19T23:50:07.366Z,99421.20
2019-02-19T23:52:36.971Z,99419.28
2019-02-19T23:55:06.670Z,99413.32
2019-02-19T23:57:36.940Z,99419.09
